createdAt,value
2022-08-19T00:02:13.382Z,71.88
2022-08-19T00:04:47.644Z,71.95
2022-08-19T00:07:22.349Z,72.01
2022-08-19T00:09:54.954Z,72.32
2022-08-19T00:12:30.423Z,72.44
2022-08-19T00:15:02.863Z,72.43
2022-08-19T00:17:35.638Z,72.49
2022-08-19T00:20:11.937Z,72.83
2022-08-19T00:22:45.470Z,72.99
2022-08-19T00:25:19.322Z,73.12
2022-08-19T00:27:53.478Z,72.85
2022-08-19T00:30:27.074Z,73.12
2022-08-19T00:33:11.143Z,73.27
2022-08-19T00:35:43.984Z,73.05
2022-08-19T00:38:16.435Z,73.09
2022-08-19T00:40:51.401Z,73.05
2022-08-19T00:43:26.472Z,73.41
2022-08-19T00:45:58.862Z,73.74
2022-08-19T00:48:31.495Z,74.11
2022-08-19T00:51:03.916Z,74.51
2022-08-19T00:53:36.609Z,74.50
2022-08-19T00:56:09.769Z,74.75
2022-08-19T00:58:42.584Z,74.61
2022-08-19T01:01:15.575Z,74.43
2022-08-19T01:03:56.774Z,74.71
2022-08-19T01:06:22.785Z,74.81
2022-08-19T01:08:56.540Z,74.94
2022-08-19T01:11:34.943Z,75.13
2022-08-19T01:14:07.454Z,75.30
2022-08-19T01:16:40.728Z,74.91
2022-08-19T01:19:30.800Z,74.67
2022-08-19T01:22:32.892Z,74.89
2022-08-19T01:25:01.259Z,75.14
2022-08-19T01:27:43.866Z,75.04
2022-08-19T01:30:23.788Z,75.30
2022-08-19T01:32:57.563Z,75.41
2022-08-19T01:35:32.582Z,75.33
2022-08-19T01:38:11.193Z,75.62
2022-08-19T01:40:45.024Z,75.96
2022-08-19T01:43:17.444Z,76.19
2022-08-19T01:45:49.853Z,76.19
2022-08-19T01:48:23.064Z,76.16
2022-08-19T01:50:55.623Z,76.12
2022-08-19T01:53:33.583Z,76.00
2022-08-19T01:56:02.681Z,76.12
2022-08-19T01:58:42.575Z,76.60
2022-08-19T02:01:15.274Z,77.01
2022-08-19T02:03:48.594Z,76.85
2022-08-19T02:06:21.473Z,76.84
2022-08-19T02:08:57.358Z,76.90
2022-08-19T02:11:40.613Z,76.78
2022-08-19T02:14:13.073Z,76.46
2022-08-19T02:16:46.294Z,76.48
2022-08-19T02:19:19.114Z,76.82
2022-08-19T02:21:51.592Z,77.17
2022-08-19T02:24:23.978Z,76.96
2022-08-19T02:26:57.622Z,77.07
2022-08-19T02:29:31.046Z,77.71
2022-08-19T02:32:03.579Z,77.80
2022-08-19T02:34:36.609Z,78.07
2022-08-19T02:37:10.691Z,78.74
2022-08-19T02:39:43.185Z,78.70
2022-08-19T02:42:15.705Z,78.44
2022-08-19T02:44:50.058Z,78.60
2022-08-19T02:47:22.475Z,79.19
2022-08-19T02:49:56.408Z,79.73
2022-08-19T02:52:29.806Z,79.67
2022-08-19T02:55:02.604Z,79.72
2022-08-19T02:57:35.508Z,80.20
2022-08-19T03:00:12.806Z,79.89
2022-08-19T03:02:45.851Z,80.09
2022-08-19T03:05:18.401Z,80.17
2022-08-19T03:07:53.700Z,80.12
2022-08-19T03:10:26.588Z,80.09
2022-08-19T03:12:59.793Z,80.07
2022-08-19T03:15:33.596Z,79.70
2022-08-19T03:18:06.391Z,79.43
2022-08-19T03:20:49.982Z,79.49
2022-08-19T03:23:22.721Z,79.72
2022-08-19T03:25:58.291Z,79.98
2022-08-19T03:28:29.892Z,80.28
2022-08-19T03:31:06.325Z,80.08
2022-08-19T03:33:41.466Z,80.33
2022-08-19T03:36:24.317Z,79.98
2022-08-19T03:39:00.239Z,79.70
2022-08-19T03:41:45.792Z,79.52
2022-08-19T03:44:12.740Z,78.82
2022-08-19T03:46:45.887Z,78.48
2022-08-19T03:49:19.897Z,78.63
2022-08-19T03:51:52.573Z,78.22
2022-08-19T03:54:26.130Z,77.60
2022-08-19T03:56:58.989Z,77.45
2022-08-19T03:59:35.552Z,77.41
2022-08-19T04:02:13.277Z,77.47
2022-08-19T04:04:46.210Z,76.79
2022-08-19T04:07:21.556Z,76.12
2022-08-19T04:09:54.520Z,75.83
2022-08-19T04:12:27.088Z,75.57
2022-08-19T04:14:59.615Z,74.73
2022-08-19T04:17:33.280Z,74.49
2022-08-19T04:20:07.270Z,74.32
2022-08-19T04:22:39.912Z,73.88
2022-08-19T04:25:13.323Z,73.33
2022-08-19T04:27:47.506Z,73.37
2022-08-19T04:30:22.199Z,73.21
2022-08-19T04:32:54.962Z,73.09
2022-08-19T04:35:27.569Z,72.69
2022-08-19T04:38:00.150Z,72.99
2022-08-19T04:40:49.925Z,73.09
2022-08-19T04:43:24.134Z,72.93
2022-08-19T04:46:00.853Z,72.38
2022-08-19T04:48:32.961Z,72.06
2022-08-19T04:51:11.392Z,72.61
2022-08-19T04:53:44.128Z,73.30
2022-08-19T04:56:18.428Z,72.88
2022-08-19T04:58:52.626Z,72.92
2022-08-19T05:01:29.404Z,73.04
2022-08-19T05:04:06.657Z,72.00
2022-08-19T05:06:40.218Z,71.89
2022-08-19T05:09:12.808Z,72.13
2022-08-19T05:11:45.335Z,71.80
2022-08-19T05:14:17.824Z,70.50
2022-08-19T05:16:53.573Z,70.88
2022-08-19T05:19:42.075Z,70.74
2022-08-19T05:22:32.476Z,69.82
2022-08-19T05:25:13.790Z,68.64
2022-08-19T05:27:47.531Z,68.47
2022-08-19T05:30:24.520Z,67.16
2022-08-19T05:32:56.560Z,67.14
2022-08-19T05:35:29.549Z,66.33
2022-08-19T05:38:03.675Z,65.82
2022-08-19T05:40:41.130Z,66.09
2022-08-19T05:43:15.615Z,66.17
2022-08-19T05:45:48.151Z,65.37
2022-08-19T05:48:21.673Z,64.80
2022-08-19T05:50:54.197Z,64.80
2022-08-19T05:53:27.414Z,63.66
2022-08-19T05:56:00.397Z,62.99
2022-08-19T05:58:34.096Z,62.82
2022-08-19T06:01:28.732Z,62.26
2022-08-19T06:04:01.107Z,62.34
2022-08-19T06:06:36.324Z,61.59
2022-08-19T06:09:12.151Z,60.34
2022-08-19T06:11:54.099Z,60.13
2022-08-19T06:14:28.878Z,60.13
2022-08-19T06:17:06.788Z,60.14
2022-08-19T06:19:40.926Z,59.34
2022-08-19T06:22:14.228Z,57.98
2022-08-19T06:24:47.723Z,57.30
2022-08-19T06:27:21.322Z,57.47
2022-08-19T06:29:55.248Z,57.20
2022-08-19T06:32:28.741Z,56.66
2022-08-19T06:35:01.784Z,56.96
2022-08-19T06:37:34.879Z,56.10
2022-08-19T06:40:09.688Z,56.27
2022-08-19T06:42:45.221Z,55.77
2022-08-19T06:45:15.795Z,55.14
2022-08-19T06:47:49.301Z,55.67
2022-08-19T06:50:22.091Z,54.29
2022-08-19T06:52:56.436Z,53.97
2022-08-19T06:55:31.020Z,53.55
2022-08-19T06:58:06.504Z,53.50
2022-08-19T07:00:38.924Z,53.23
2022-08-19T07:03:13.259Z,53.24
2022-08-19T07:05:47.325Z,53.05
2022-08-19T07:08:20.257Z,52.24
2022-08-19T07:10:52.852Z,52.23
2022-08-19T07:13:26.626Z,50.81
2022-08-19T07:15:59.094Z,50.56
2022-08-19T07:18:32.557Z,50.65
2022-08-19T07:21:12.148Z,50.43
2022-08-19T07:23:46.259Z,50.59
2022-08-19T07:26:42.241Z,48.49
2022-08-19T07:29:17.098Z,49.04
2022-08-19T07:31:52.137Z,48.39
2022-08-19T07:34:26.477Z,48.16
2022-08-19T07:36:58.986Z,47.57
2022-08-19T07:39:34.615Z,47.81
2022-08-19T07:42:11.086Z,47.47
2022-08-19T07:44:55.125Z,47.11
2022-08-19T07:47:48.122Z,46.85
2022-08-19T07:50:05.810Z,47.14
2022-08-19T07:52:40.797Z,46.63
2022-08-19T07:55:40.126Z,45.53
2022-08-19T07:57:48.869Z,45.62
2022-08-19T08:00:23.926Z,44.77
2022-08-19T08:02:56.441Z,45.35
2022-08-19T08:05:46.819Z,45.30
2022-08-19T08:08:27.652Z,45.27
2022-08-19T08:10:59.309Z,44.90
2022-08-19T08:13:31.718Z,45.84
2022-08-19T08:16:04.801Z,45.06
2022-08-19T08:18:40.861Z,45.01
2022-08-19T08:21:13.437Z,44.06
2022-08-19T08:23:45.964Z,44.15
2022-08-19T08:26:19.376Z,43.29
2022-08-19T08:28:52.127Z,43.43
2022-08-19T08:31:24.712Z,44.30
2022-08-19T08:33:58.173Z,44.87
2022-08-19T08:36:33.524Z,44.01
2022-08-19T08:39:05.996Z,43.74
2022-08-19T08:42:17.804Z,44.00
2022-08-19T08:47:33.721Z,43.22
2022-08-19T08:50:16.941Z,42.66
2022-08-19T08:52:53.270Z,42.66
2022-08-19T08:55:37.116Z,42.26
2022-08-19T08:58:29.541Z,42.32
2022-08-19T09:01:02.098Z,42.20
2022-08-19T09:03:34.577Z,42.20
2022-08-19T09:06:18.375Z,42.54
2022-08-19T09:09:12.125Z,42.39
2022-08-19T09:12:14.947Z,42.59
2022-08-19T09:14:55.361Z,41.88
2022-08-19T09:17:32.333Z,42.01
2022-08-19T09:20:10.526Z,41.91
2022-08-19T09:22:47.906Z,41.30
2022-08-19T09:25:26.629Z,41.45
2022-08-19T09:28:02.734Z,41.59
2022-08-19T09:30:43.210Z,42.32
2022-08-19T09:33:17.238Z,42.37
2022-08-19T09:35:53.270Z,41.47
2022-08-19T09:38:24.760Z,41.62
2022-08-19T09:40:58.757Z,42.20
2022-08-19T09:43:33.868Z,42.51
2022-08-19T09:46:10.498Z,43.37
2022-08-19T09:48:43.696Z,42.80
2022-08-19T09:51:18.698Z,43.26
2022-08-19T09:53:54.734Z,43.70
2022-08-19T09:56:28.328Z,43.36
2022-08-19T09:59:02.608Z,44.02
2022-08-19T10:01:35.774Z,44.05
2022-08-19T10:04:19.982Z,44.24
2022-08-19T10:06:47.013Z,44.39
2022-08-19T10:09:26.161Z,44.45
2022-08-19T10:11:55.225Z,45.21
2022-08-19T10:14:28.747Z,45.81
2022-08-19T10:17:01.951Z,46.19
2022-08-19T10:19:37.418Z,47.08
2022-08-19T10:22:10.116Z,46.58
2022-08-19T10:24:44.577Z,46.79
2022-08-19T10:27:17.020Z,47.00
2022-08-19T10:29:49.392Z,46.38
2022-08-19T10:32:33.807Z,46.12
2022-08-19T10:34:58.544Z,45.51
2022-08-19T10:37:32.485Z,45.36
2022-08-19T10:40:06.056Z,45.62
2022-08-19T10:42:39.369Z,45.02
2022-08-19T10:45:12.521Z,46.61
2022-08-19T10:47:45.065Z,45.56
2022-08-19T10:50:36.736Z,45.24
2022-08-19T10:53:11.565Z,45.04
2022-08-19T10:56:04.297Z,45.62
2022-08-19T10:58:36.840Z,45.90
2022-08-19T11:01:09.667Z,45.67
2022-08-19T11:03:42.528Z,45.81
2022-08-19T11:06:15.687Z,46.00
2022-08-19T11:08:48.559Z,46.52
2022-08-19T11:11:21.520Z,46.06
2022-08-19T11:13:54.188Z,45.92
2022-08-19T11:16:29.910Z,47.30
2022-08-19T11:19:04.127Z,45.87
2022-08-19T11:21:43.166Z,45.68
2022-08-19T11:24:19.317Z,46.43
2022-08-19T11:26:56.643Z,46.21
2022-08-19T11:29:29.279Z,45.64
2022-08-19T11:32:03.833Z,46.49
2022-08-19T11:34:38.794Z,45.91
2022-08-19T11:37:14.654Z,46.44
2022-08-19T11:39:53.301Z,45.26
2022-08-19T11:42:40.090Z,45.12
2022-08-19T11:45:13.756Z,45.31
2022-08-19T11:47:47.274Z,45.75
2022-08-19T11:50:20.177Z,46.95
2022-08-19T11:52:55.249Z,46.48
2022-08-19T11:55:27.835Z,47.02
2022-08-19T11:58:00.813Z,46.97
2022-08-19T12:00:36.685Z,47.54
2022-08-19T12:03:09.712Z,46.67
2022-08-19T12:05:42.954Z,47.14
2022-08-19T12:08:16.509Z,47.29
2022-08-19T12:10:49.898Z,47.50
2022-08-19T12:13:22.546Z,48.87
2022-08-19T12:15:55.860Z,48.87
2022-08-19T12:18:28.473Z,49.99
2022-08-19T12:21:01.695Z,50.30
2022-08-19T12:23:34.903Z,51.31
2022-08-19T12:26:07.522Z,52.47
2022-08-19T12:28:40.782Z,52.87
2022-08-19T12:31:13.281Z,53.83
2022-08-19T12:33:46.854Z,54.72
2022-08-19T12:36:19.349Z,55.33
2022-08-19T12:38:52.863Z,55.77
2022-08-19T12:41:25.531Z,56.76
2022-08-19T12:43:59.410Z,57.79
2022-08-19T12:46:33.833Z,57.81
2022-08-19T12:49:20.675Z,58.16
2022-08-19T12:51:41.275Z,58.25
2022-08-19T12:54:14.206Z,58.34
2022-08-19T12:56:47.651Z,58.84
2022-08-19T12:59:21.937Z,59.33
2022-08-19T13:01:54.695Z,59.45
2022-08-19T13:04:27.394Z,59.60
2022-08-19T13:07:00.486Z,60.04
2022-08-19T13:09:33.687Z,60.12
2022-08-19T13:12:09.529Z,60.25
2022-08-19T13:14:43.553Z,60.39
2022-08-19T13:17:16.589Z,60.85
2022-08-19T13:19:50.430Z,60.65
2022-08-19T13:22:23.149Z,60.97
2022-08-19T13:24:55.762Z,60.88
2022-08-19T13:27:28.145Z,60.89
2022-08-19T13:30:18.499Z,61.00
2022-08-19T13:33:09.131Z,61.04
2022-08-19T13:35:51.104Z,61.19
2022-08-19T13:38:24.088Z,61.31
2022-08-19T13:40:58.002Z,61.40
2022-08-19T13:43:31.297Z,61.57
2022-08-19T13:46:08.067Z,61.44
2022-08-19T13:48:42.213Z,61.50
2022-08-19T13:51:18.148Z,61.98
2022-08-19T13:53:51.739Z,61.71
2022-08-19T13:56:26.744Z,60.97
2022-08-19T13:58:59.342Z,61.24
2022-08-19T14:01:32.199Z,61.41
2022-08-19T14:04:06.480Z,61.04
2022-08-19T14:06:40.183Z,61.05
2022-08-19T14:09:13.591Z,60.89
2022-08-19T14:11:48.234Z,60.76
2022-08-19T14:14:20.619Z,60.58
2022-08-19T14:16:53.267Z,60.78
2022-08-19T14:19:26.156Z,60.87
2022-08-19T14:22:01.874Z,60.93
2022-08-19T14:24:34.737Z,60.79
2022-08-19T14:27:08.766Z,60.41
2022-08-19T14:29:42.857Z,61.02
2022-08-19T14:32:16.882Z,61.13
2022-08-19T14:34:49.970Z,60.83
2022-08-19T14:37:24.302Z,60.92
2022-08-19T14:39:57.368Z,60.89
2022-08-19T14:42:29.844Z,61.02
2022-08-19T14:45:02.831Z,61.18
2022-08-19T14:47:35.665Z,61.37
2022-08-19T14:50:17.927Z,60.23
2022-08-19T14:52:46.497Z,60.42
2022-08-19T14:55:19.520Z,60.47
2022-08-19T14:57:52.393Z,61.67
2022-08-19T15:00:25.155Z,61.00
2022-08-19T15:02:59.124Z,61.46
2022-08-19T15:05:32.631Z,62.20
2022-08-19T15:08:08.919Z,62.43
2022-08-19T15:10:42.699Z,61.62
2022-08-19T15:13:15.889Z,61.73
2022-08-19T15:15:50.041Z,61.62
2022-08-19T15:18:22.868Z,61.56
2022-08-19T15:20:57.165Z,60.91
2022-08-19T15:23:29.669Z,61.12
2022-08-19T15:26:03.012Z,61.29
2022-08-19T15:28:36.131Z,61.71
2022-08-19T15:31:09.629Z,61.87
2022-08-19T15:33:45.400Z,62.09
2022-08-19T15:36:18.906Z,62.05
2022-08-19T15:38:53.436Z,62.54
2022-08-19T15:41:30.859Z,62.37
2022-08-19T15:44:10.497Z,62.75
2022-08-19T15:46:44.793Z,62.95
2022-08-19T15:49:19.102Z,63.71
2022-08-19T15:51:54.422Z,63.62
2022-08-19T15:54:27.486Z,63.35
2022-08-19T15:57:17.359Z,63.50
2022-08-19T16:00:08.298Z,63.51
2022-08-19T16:03:00.223Z,63.15
2022-08-19T16:05:50.966Z,63.46
2022-08-19T16:08:24.458Z,63.99
2022-08-19T16:10:57.488Z,64.58
2022-08-19T16:13:30.057Z,64.55
2022-08-19T16:16:02.706Z,64.48
2022-08-19T16:18:37.478Z,64.93
2022-08-19T16:21:09.456Z,65.27
2022-08-19T16:23:42.165Z,65.13
2022-08-19T16:26:16.747Z,65.29
2022-08-19T16:28:49.609Z,65.87
2022-08-19T16:31:24.152Z,66.13
2022-08-19T16:33:57.039Z,66.36
2022-08-19T16:36:31.558Z,66.60
2022-08-19T16:39:04.516Z,66.67
2022-08-19T16:41:38.157Z,66.48
2022-08-19T16:44:12.339Z,66.67
2022-08-19T16:46:58.422Z,66.81
2022-08-19T16:49:54.190Z,67.02
2022-08-19T16:52:01.883Z,67.20
2022-08-19T16:54:35.992Z,67.11
2022-08-19T16:57:08.894Z,67.35
2022-08-19T16:59:48.829Z,67.52
2022-08-19T17:02:22.066Z,67.65
2022-08-19T17:04:58.741Z,67.63
2022-08-19T17:07:33.080Z,67.70
2022-08-19T17:10:05.827Z,67.85
2022-08-19T17:12:39.721Z,68.08
2022-08-19T17:15:12.650Z,68.37
2022-08-19T17:17:45.396Z,68.17
2022-08-19T17:20:17.754Z,68.57
2022-08-19T17:22:50.837Z,68.58
2022-08-19T17:25:26.689Z,68.49
2022-08-19T17:28:00.041Z,68.70
2022-08-19T17:30:32.637Z,69.08
2022-08-19T17:33:06.123Z,68.86
2022-08-19T17:35:40.949Z,69.00
2022-08-19T17:38:19.560Z,69.10
2022-08-19T17:40:53.090Z,69.13
2022-08-19T17:43:32.569Z,69.28
2022-08-19T17:46:03.454Z,69.52
2022-08-19T17:48:38.288Z,69.47
2022-08-19T17:51:22.548Z,69.63
2022-08-19T17:53:55.487Z,69.82
2022-08-19T17:56:28.908Z,69.97
2022-08-19T17:59:01.808Z,70.21
2022-08-19T18:01:52.335Z,70.43
2022-08-19T18:04:10.007Z,70.87
2022-08-19T18:06:46.636Z,71.07
2022-08-19T18:09:17.998Z,71.35
2022-08-19T18:11:53.859Z,71.93
2022-08-19T18:14:33.763Z,72.02
2022-08-19T18:17:09.116Z,72.45
2022-08-19T18:19:44.138Z,72.71
2022-08-19T18:22:30.689Z,72.79
2022-08-19T18:25:04.694Z,72.75
2022-08-19T18:27:38.805Z,73.04
2022-08-19T18:30:12.775Z,73.41
2022-08-19T18:32:47.308Z,73.36
2022-08-19T18:35:26.374Z,73.84
2022-08-19T18:38:01.774Z,73.96
2022-08-19T18:40:53.582Z,74.31
2022-08-19T18:43:44.194Z,74.48
2022-08-19T18:46:36.818Z,74.48
2022-08-19T18:49:11.065Z,75.02
2022-08-19T18:51:43.631Z,75.26
2022-08-19T18:54:16.004Z,75.46
2022-08-19T18:56:48.355Z,75.25
2022-08-19T18:59:27.149Z,75.58
2022-08-19T19:02:00.872Z,76.22
2022-08-19T19:04:37.457Z,76.39
2022-08-19T19:07:11.488Z,76.79
2022-08-19T19:09:44.488Z,76.98
2022-08-19T19:12:18.849Z,76.90
2022-08-19T19:14:52.330Z,76.51
2022-08-19T19:17:26.906Z,76.03
2022-08-19T19:19:59.480Z,75.62
2022-08-19T19:22:32.049Z,75.72
2022-08-19T19:25:05.857Z,75.69
2022-08-19T19:27:40.613Z,75.90
2022-08-19T19:30:14.088Z,76.29
2022-08-19T19:32:47.280Z,76.51
2022-08-19T19:35:19.653Z,76.66
2022-08-19T19:37:52.926Z,76.74
2022-08-19T19:40:26.794Z,76.74
2022-08-19T19:43:00.356Z,76.85
2022-08-19T19:45:34.657Z,77.13
2022-08-19T19:48:09.636Z,77.68
2022-08-19T19:50:42.677Z,78.32
2022-08-19T19:53:18.346Z,78.73
2022-08-19T19:55:52.975Z,78.57
2022-08-19T19:58:28.717Z,78.72
2022-08-19T20:01:01.413Z,78.64
2022-08-19T20:03:37.637Z,78.61
2022-08-19T20:06:11.561Z,78.48
2022-08-19T20:09:02.044Z,78.77
2022-08-19T20:11:50.150Z,78.55
2022-08-19T20:14:27.819Z,78.74
2022-08-19T20:17:00.780Z,79.30
2022-08-19T20:19:36.282Z,79.61
2022-08-19T20:22:09.102Z,79.63
2022-08-19T20:24:42.842Z,79.82
2022-08-19T20:27:15.450Z,79.73
2022-08-19T20:29:49.640Z,80.04
2022-08-19T20:32:23.713Z,80.20
2022-08-19T20:34:56.116Z,80.38
2022-08-19T20:37:28.724Z,80.30
2022-08-19T20:40:01.153Z,80.50
2022-08-19T20:42:35.241Z,80.69
2022-08-19T20:45:09.866Z,80.96
2022-08-19T20:47:44.684Z,81.32
2022-08-19T20:50:17.974Z,81.67
2022-08-19T20:52:53.701Z,81.66
2022-08-19T20:55:25.328Z,81.99
2022-08-19T20:57:58.797Z,82.18
2022-08-19T21:00:31.401Z,82.21
2022-08-19T21:03:04.029Z,81.67
2022-08-19T21:05:38.231Z,81.64
2022-08-19T21:08:11.049Z,81.76
2022-08-19T21:10:44.783Z,82.11
2022-08-19T21:13:18.390Z,82.21
2022-08-19T21:15:51.619Z,82.96
2022-08-19T21:18:26.874Z,82.52
2022-08-19T21:20:59.339Z,82.30
2022-08-19T21:23:33.123Z,82.48
2022-08-19T21:26:07.575Z,82.95
2022-08-19T21:28:39.991Z,83.00
2022-08-19T21:31:13.639Z,83.32
2022-08-19T21:33:47.071Z,83.72
2022-08-19T21:36:19.658Z,83.87
2022-08-19T21:38:52.205Z,84.19
2022-08-19T21:41:24.712Z,84.06
2022-08-19T21:43:57.173Z,84.87
2022-08-19T21:46:32.562Z,85.20
2022-08-19T21:49:05.453Z,85.53
2022-08-19T21:51:38.617Z,85.82
2022-08-19T21:54:14.019Z,85.91
2022-08-19T21:56:45.697Z,85.94
2022-08-19T21:59:18.228Z,85.87
2022-08-19T22:02:05.704Z,86.14
2022-08-19T22:04:26.731Z,87.18
2022-08-19T22:06:59.391Z,87.95
2022-08-19T22:09:31.978Z,88.03
2022-08-19T22:12:05.462Z,87.80
2022-08-19T22:15:00.074Z,88.46
2022-08-19T22:17:32.892Z,88.69
2022-08-19T22:20:10.249Z,89.04
2022-08-19T22:22:49.461Z,89.42
2022-08-19T22:25:46.687Z,89.38
2022-08-19T22:28:27.556Z,89.93
2022-08-19T22:30:54.289Z,89.66
2022-08-19T22:33:29.014Z,89.68
2022-08-19T22:36:02.597Z,90.36
2022-08-19T22:38:35.880Z,90.64
2022-08-19T22:41:08.454Z,90.83
2022-08-19T22:43:41.479Z,90.83
2022-08-19T22:46:16.930Z,91.31
2022-08-19T22:48:48.460Z,91.61
2022-08-19T22:51:40.752Z,91.41
2022-08-19T22:54:13.672Z,91.38
2022-08-19T22:56:47.501Z,91.11
2022-08-19T22:59:20.330Z,91.35
2022-08-19T23:01:55.012Z,91.36
2022-08-19T23:04:31.118Z,91.48
2022-08-19T23:07:03.568Z,92.03
2022-08-19T23:09:36.020Z,92.04
2022-08-19T23:12:11.049Z,92.33
2022-08-19T23:14:44.731Z,92.67
2022-08-19T23:17:17.652Z,92.89
2022-08-19T23:19:53.674Z,92.75
2022-08-19T23:22:27.136Z,93.03
2022-08-19T23:25:07.077Z,93.62
2022-08-19T23:27:58.289Z,93.62
2022-08-19T23:30:31.484Z,93.36
2022-08-19T23:33:12.918Z,93.69
2022-08-19T23:35:44.835Z,93.57
2022-08-19T23:38:19.670Z,93.46
2022-08-19T23:40:53.547Z,93.32
2022-08-19T23:43:28.692Z,92.97
2022-08-19T23:46:10.418Z,92.74
2022-08-19T23:48:39.897Z,92.71
2022-08-19T23:51:13.064Z,92.47
2022-08-19T23:53:45.586Z,91.97
2022-08-19T23:56:18.510Z,91.84
2022-08-19T23:58:51.149Z,92.12
